createdAt,value
2023-03-16T00:00:00.923Z,1015.65
2023-03-16T00:01:00.932Z,1015.66
2023-03-16T00:02:01.020Z,1015.53
2023-03-16T00:03:00.990Z,1015.59
2023-03-16T00:04:00.882Z,1015.61
2023-03-16T00:05:00.857Z,1015.54
2023-03-16T00:06:00.927Z,1015.58
2023-03-16T00:07:00.838Z,1015.54
2023-03-16T00:08:00.838Z,1015.53
2023-03-16T00:09:00.817Z,1015.56
2023-03-16T00:10:00.852Z,1015.57
2023-03-16T00:11:00.792Z,1015.49
2023-03-16T00:12:00.790Z,1015.45
2023-03-16T00:13:00.762Z,1015.45
2023-03-16T00:14:00.775Z,1015.44
2023-03-16T00:15:02.259Z,1015.37
2023-03-16T00:16:00.845Z,1015.39
2023-03-16T00:17:00.761Z,1015.41
2023-03-16T00:18:00.724Z,1015.47
2023-03-16T00:19:00.699Z,1015.43
2023-03-16T00:20:00.717Z,1015.47
2023-03-16T00:21:00.684Z,1015.54
2023-03-16T00:22:00.705Z,1015.53
2023-03-16T00:23:00.663Z,1015.50
2023-03-16T00:24:00.652Z,1015.52
2023-03-16T00:25:00.656Z,1015.44
2023-03-16T00:26:00.636Z,1015.50
2023-03-16T00:27:00.613Z,1015.52
2023-03-16T00:28:00.645Z,1015.48
2023-03-16T00:29:00.605Z,1015.46
2023-03-16T00:30:00.601Z,1015.41
2023-03-16T00:31:00.583Z,1015.43
2023-03-16T00:32:00.632Z,1015.38
2023-03-16T00:33:00.599Z,1015.41
2023-03-16T00:34:00.542Z,1015.32
2023-03-16T00:35:00.544Z,1015.32
2023-03-16T00:36:00.549Z,1015.34
2023-03-16T00:37:00.502Z,1015.41
2023-03-16T00:38:00.495Z,1015.40
2023-03-16T00:39:00.476Z,1015.41
2023-03-16T00:40:00.521Z,1015.47
2023-03-16T00:41:00.451Z,1015.33
2023-03-16T00:42:00.462Z,1015.32
2023-03-16T00:43:00.459Z,1015.28
2023-03-16T00:44:00.430Z,1015.31
2023-03-16T00:45:00.442Z,1015.32
2023-03-16T00:46:00.440Z,1015.31
2023-03-16T00:47:00.387Z,1015.33
2023-03-16T00:48:00.398Z,1015.30
2023-03-16T00:49:00.393Z,1015.23
2023-03-16T00:50:00.372Z,1015.28
2023-03-16T00:51:00.398Z,1015.20
2023-03-16T00:52:00.348Z,1015.28
2023-03-16T00:53:00.322Z,1015.22
2023-03-16T00:54:00.331Z,1015.21
2023-03-16T00:55:00.311Z,1015.23
2023-03-16T00:56:00.298Z,1015.31
2023-03-16T00:57:00.470Z,1015.29
2023-03-16T00:58:00.273Z,1015.24
2023-03-16T00:59:00.304Z,1015.31
2023-03-16T01:00:00.261Z,1015.34
2023-03-16T01:01:00.295Z,1015.28
2023-03-16T01:02:00.241Z,1015.29
2023-03-16T01:03:00.225Z,1015.25
2023-03-16T01:04:00.205Z,1015.20
2023-03-16T01:05:00.234Z,1015.25
2023-03-16T01:06:00.218Z,1015.22
2023-03-16T01:07:00.175Z,1015.17
2023-03-16T01:08:00.168Z,1015.09
2023-03-16T01:09:00.163Z,1015.13
2023-03-16T01:10:00.163Z,1015.05
2023-03-16T01:11:00.150Z,1015.07
2023-03-16T01:12:00.123Z,1015.12
2023-03-16T01:13:00.120Z,1015.12
2023-03-16T01:14:00.116Z,1015.12
2023-03-16T01:15:00.114Z,1015.04
2023-03-16T01:16:00.142Z,1014.98
2023-03-16T01:17:00.178Z,1015.02
2023-03-16T01:18:00.294Z,1015.01
2023-03-16T01:19:00.038Z,1014.96
2023-03-16T01:20:00.038Z,1014.97
2023-03-16T01:21:00.007Z,1014.99
2023-03-16T01:22:00.049Z,1014.94
2023-03-16T01:22:59.998Z,1014.99
2023-03-16T01:24:00.000Z,1014.99
2023-03-16T01:24:59.975Z,1015.00
2023-03-16T01:25:59.981Z,1014.98
2023-03-16T01:26:59.953Z,1014.91
2023-03-16T01:27:59.982Z,1014.86
2023-03-16T01:28:59.925Z,1014.86
2023-03-16T01:30:00.917Z,1014.81
2023-03-16T01:30:59.980Z,1014.87
2023-03-16T01:31:59.906Z,1014.76
2023-03-16T01:32:59.945Z,1014.81
2023-03-16T01:33:59.926Z,1014.74
2023-03-16T01:34:59.871Z,1014.73
2023-03-16T01:35:59.967Z,1014.74
2023-03-16T01:36:59.854Z,1014.79
2023-03-16T01:37:59.860Z,1014.71
2023-03-16T01:38:59.849Z,1014.65
2023-03-16T01:39:59.810Z,1014.70
2023-03-16T01:41:00.774Z,1014.69
2023-03-16T01:41:59.804Z,1014.71
2023-03-16T01:42:59.779Z,1014.65
2023-03-16T01:44:00.081Z,1014.63
2023-03-16T01:44:59.774Z,1014.61
2023-03-16T01:45:59.786Z,1014.70
2023-03-16T01:46:59.756Z,1014.59
2023-03-16T01:47:59.751Z,1014.60
2023-03-16T01:49:00.500Z,1014.61
2023-03-16T01:49:59.753Z,1014.57
2023-03-16T01:50:59.695Z,1014.56
2023-03-16T01:51:59.690Z,1014.56
2023-03-16T01:52:59.700Z,1014.60
2023-03-16T01:53:59.681Z,1014.55
2023-03-16T01:54:59.652Z,1014.52
2023-03-16T01:55:59.668Z,1014.48
2023-03-16T01:56:59.633Z,1014.46
2023-03-16T01:57:59.622Z,1014.52
2023-03-16T01:58:59.624Z,1014.48
2023-03-16T01:59:59.593Z,1014.47
2023-03-16T02:00:59.643Z,1014.43
2023-03-16T02:01:59.572Z,1014.46
2023-03-16T02:02:59.597Z,1014.43
2023-03-16T02:03:59.589Z,1014.50
2023-03-16T02:04:59.538Z,1014.44
2023-03-16T02:05:59.546Z,1014.43
2023-03-16T02:06:59.529Z,1014.41
2023-03-16T02:07:59.534Z,1014.40
2023-03-16T02:08:59.521Z,1014.39
2023-03-16T02:09:59.539Z,1014.39
2023-03-16T02:10:59.489Z,1014.35
2023-03-16T02:11:59.470Z,1014.38
2023-03-16T02:12:59.475Z,1014.38
2023-03-16T02:13:59.454Z,1014.37
2023-03-16T02:14:59.434Z,1014.34
2023-03-16T02:15:59.547Z,1014.30
2023-03-16T02:16:59.422Z,1014.31
2023-03-16T02:17:59.419Z,1014.28
2023-03-16T02:18:59.393Z,1014.32
2023-03-16T02:20:00.140Z,1014.31
2023-03-16T02:20:59.360Z,1014.28
2023-03-16T02:21:59.398Z,1014.26
2023-03-16T02:22:59.358Z,1014.28
2023-03-16T02:23:59.368Z,1014.29
2023-03-16T02:25:00.355Z,1014.22
2023-03-16T02:25:59.338Z,1014.24
2023-03-16T02:26:59.308Z,1014.21
2023-03-16T02:27:59.295Z,1014.14
2023-03-16T02:28:59.278Z,1014.16
2023-03-16T02:29:59.288Z,1014.17
2023-03-16T02:30:59.287Z,1014.17
2023-03-16T02:31:59.279Z,1014.18
2023-03-16T02:32:59.270Z,1014.11
2023-03-16T02:33:59.352Z,1014.15
2023-03-16T02:34:59.211Z,1014.18
2023-03-16T02:35:59.250Z,1014.17
2023-03-16T02:36:59.201Z,1014.15
2023-03-16T02:37:59.210Z,1014.11
2023-03-16T02:38:59.168Z,1014.13
2023-03-16T02:39:59.170Z,1014.13
2023-03-16T02:41:00.125Z,1014.11
2023-03-16T02:41:59.171Z,1014.11
2023-03-16T02:42:59.168Z,1014.12
2023-03-16T02:43:59.215Z,1014.11
2023-03-16T02:44:59.148Z,1014.09
2023-03-16T02:45:59.107Z,1014.04
2023-03-16T02:46:59.098Z,1013.97
2023-03-16T02:47:59.114Z,1013.97
2023-03-16T02:48:59.064Z,1013.95
2023-03-16T02:49:59.058Z,1013.94
2023-03-16T02:50:59.044Z,1013.93
2023-03-16T02:51:59.038Z,1013.86
2023-03-16T02:52:59.857Z,1013.87
2023-03-16T02:53:59.107Z,1013.86
2023-03-16T02:54:59.179Z,1013.93
2023-03-16T02:55:59.011Z,1013.90
2023-03-16T02:56:59.120Z,1013.88
2023-03-16T02:57:58.981Z,1013.87
2023-03-16T02:58:58.980Z,1013.89
2023-03-16T02:59:58.986Z,1013.91
2023-03-16T03:00:58.951Z,1013.85
2023-03-16T03:01:58.920Z,1013.77
2023-03-16T03:02:58.957Z,1013.79
2023-03-16T03:03:58.909Z,1013.80
2023-03-16T03:04:58.889Z,1013.82
2023-03-16T03:06:00.156Z,1013.85
2023-03-16T03:06:58.886Z,1013.85
2023-03-16T03:07:58.860Z,1013.82
2023-03-16T03:08:58.872Z,1013.83
2023-03-16T03:09:58.884Z,1013.80
2023-03-16T03:10:58.830Z,1013.76
2023-03-16T03:11:58.824Z,1013.72
2023-03-16T03:12:58.814Z,1013.74
2023-03-16T03:13:58.972Z,1013.76
2023-03-16T03:14:58.786Z,1013.72
2023-03-16T03:15:58.873Z,1013.72
2023-03-16T03:16:58.792Z,1013.66
2023-03-16T03:17:58.771Z,1013.67
2023-03-16T03:18:58.746Z,1013.72
2023-03-16T03:19:58.731Z,1013.73
2023-03-16T03:20:58.759Z,1013.67
2023-03-16T03:21:58.698Z,1013.75
2023-03-16T03:22:58.720Z,1013.71
2023-03-16T03:23:58.707Z,1013.70
2023-03-16T03:24:58.668Z,1013.66
2023-03-16T03:25:58.665Z,1013.63
2023-03-16T03:26:58.648Z,1013.68
2023-03-16T03:27:58.697Z,1013.64
2023-03-16T03:28:58.656Z,1013.68
2023-03-16T03:29:58.618Z,1013.68
2023-03-16T03:30:58.620Z,1013.68
2023-03-16T03:31:58.677Z,1013.68
2023-03-16T03:32:58.649Z,1013.70
2023-03-16T03:33:58.590Z,1013.64
2023-03-16T03:34:58.728Z,1013.67
2023-03-16T03:35:58.643Z,1013.61
2023-03-16T03:36:58.559Z,1013.60
2023-03-16T03:37:58.544Z,1013.62
2023-03-16T03:38:58.531Z,1013.59
2023-03-16T03:39:58.505Z,1013.59
2023-03-16T03:40:58.495Z,1013.64
2023-03-16T03:41:58.531Z,1013.64
2023-03-16T03:42:58.481Z,1013.56
2023-03-16T03:43:58.473Z,1013.60
2023-03-16T03:44:58.455Z,1013.50
2023-03-16T03:45:58.567Z,1013.57
2023-03-16T03:46:58.502Z,1013.59
2023-03-16T03:47:58.444Z,1013.54
2023-03-16T03:48:58.416Z,1013.56
2023-03-16T03:49:58.432Z,1013.54
2023-03-16T03:50:58.404Z,1013.59
2023-03-16T03:51:58.445Z,1013.57
2023-03-16T03:52:58.426Z,1013.64
2023-03-16T03:53:58.512Z,1013.61
2023-03-16T03:54:58.354Z,1013.65
2023-03-16T03:55:58.342Z,1013.59
2023-03-16T03:56:58.321Z,1013.52
2023-03-16T03:57:58.324Z,1013.57
2023-03-16T03:58:58.632Z,1013.62
2023-03-16T03:59:58.312Z,1013.54
2023-03-16T04:00:58.290Z,1013.65
2023-03-16T04:01:58.382Z,1013.49
2023-03-16T04:02:58.383Z,1013.54
2023-03-16T04:03:59.215Z,1013.49
2023-03-16T04:04:58.237Z,1013.50
2023-03-16T04:05:59.681Z,1013.52
2023-03-16T04:06:58.239Z,1013.51
2023-03-16T04:07:58.235Z,1013.50
2023-03-16T04:08:58.218Z,1013.46
2023-03-16T04:09:58.205Z,1013.50
2023-03-16T04:10:58.181Z,1013.51
2023-03-16T04:11:58.174Z,1013.48
2023-03-16T04:12:59.048Z,1013.47
2023-03-16T04:13:59.577Z,1013.46
2023-03-16T04:14:58.125Z,1013.46
2023-03-16T04:15:58.137Z,1013.51
2023-03-16T04:16:58.314Z,1013.40
2023-03-16T04:17:59.650Z,1013.40
2023-03-16T04:18:58.130Z,1013.38
2023-03-16T04:19:58.071Z,1013.36
2023-03-16T04:20:58.080Z,1013.41
2023-03-16T04:21:58.114Z,1013.38
2023-03-16T04:22:59.397Z,1013.38
2023-03-16T04:23:58.227Z,1013.36
2023-03-16T04:24:58.062Z,1013.38
2023-03-16T04:25:58.016Z,1013.27
2023-03-16T04:26:58.013Z,1013.37
2023-03-16T04:27:57.988Z,1013.33
2023-03-16T04:28:57.990Z,1013.36
2023-03-16T04:29:57.966Z,1013.34
2023-03-16T04:30:58.102Z,1013.30
2023-03-16T04:31:57.963Z,1013.24
2023-03-16T04:32:58.050Z,1013.25
2023-03-16T04:33:58.313Z,1013.25
2023-03-16T04:34:58.076Z,1013.24
2023-03-16T04:35:57.943Z,1013.17
2023-03-16T04:36:58.854Z,1013.24
2023-03-16T04:37:58.738Z,1013.16
2023-03-16T04:38:57.872Z,1013.34
2023-03-16T04:39:58.433Z,1013.19
2023-03-16T04:40:57.864Z,1013.17
2023-03-16T04:41:57.856Z,1013.16
2023-03-16T04:42:58.683Z,1013.11
2023-03-16T04:43:57.838Z,1013.11
2023-03-16T04:44:57.847Z,1013.21
2023-03-16T04:45:57.858Z,1013.12
2023-03-16T04:46:57.785Z,1013.08
2023-03-16T04:47:57.777Z,1013.11
2023-03-16T04:48:57.804Z,1013.13
2023-03-16T04:49:57.745Z,1013.14
2023-03-16T04:50:57.974Z,1013.12
2023-03-16T04:51:57.744Z,1013.14
2023-03-16T04:52:57.716Z,1013.16
2023-03-16T04:53:58.497Z,1013.18
2023-03-16T04:54:57.744Z,1013.15
2023-03-16T04:55:59.186Z,1013.20
2023-03-16T04:56:57.676Z,1013.17
2023-03-16T04:57:57.691Z,1013.20
2023-03-16T04:58:59.164Z,1013.17
2023-03-16T04:59:57.639Z,1013.22
2023-03-16T05:00:57.949Z,1013.21
2023-03-16T05:01:57.788Z,1013.20
2023-03-16T05:02:57.615Z,1013.11
2023-03-16T05:03:59.670Z,1013.13
2023-03-16T05:04:58.128Z,1013.19
2023-03-16T05:05:57.671Z,1013.12
2023-03-16T05:06:57.662Z,1013.16
2023-03-16T05:07:57.552Z,1013.04
2023-03-16T05:08:57.588Z,1013.13
2023-03-16T05:09:57.590Z,1013.15
2023-03-16T05:10:58.368Z,1013.14
2023-03-16T05:11:57.526Z,1013.11
2023-03-16T05:12:57.522Z,1013.17
2023-03-16T05:13:58.981Z,1013.12
2023-03-16T05:14:57.498Z,1013.16
2023-03-16T05:15:57.631Z,1013.15
2023-03-16T05:16:58.477Z,1013.16
2023-03-16T05:17:57.440Z,1013.11
2023-03-16T05:18:57.466Z,1013.11
2023-03-16T05:19:57.477Z,1013.14
2023-03-16T05:20:57.426Z,1013.13
2023-03-16T05:21:57.425Z,1013.06
2023-03-16T05:22:57.413Z,1013.10
2023-03-16T05:23:57.375Z,1013.10
2023-03-16T05:24:57.588Z,1013.11
2023-03-16T05:25:57.396Z,1013.12
2023-03-16T05:26:57.396Z,1013.11
2023-03-16T05:27:57.402Z,1013.15
2023-03-16T05:28:57.350Z,1013.12
2023-03-16T05:29:57.371Z,1013.16
2023-03-16T05:30:57.369Z,1013.14
2023-03-16T05:31:57.292Z,1013.12
2023-03-16T05:32:57.341Z,1013.08
2023-03-16T05:33:57.285Z,1013.16
2023-03-16T05:34:57.290Z,1013.03
2023-03-16T05:35:57.299Z,1013.00
2023-03-16T05:36:57.240Z,1013.08
2023-03-16T05:37:57.250Z,1013.06
2023-03-16T05:38:57.220Z,1013.02
2023-03-16T05:39:57.215Z,1013.08
2023-03-16T05:40:57.199Z,1013.01
2023-03-16T05:41:57.224Z,1012.94
2023-03-16T05:42:57.196Z,1013.00
2023-03-16T05:43:58.641Z,1013.02
2023-03-16T05:44:58.413Z,1013.04
2023-03-16T05:45:57.174Z,1013.03
2023-03-16T05:46:57.366Z,1013.08
2023-03-16T05:47:57.142Z,1013.07
2023-03-16T05:48:57.131Z,1013.12
2023-03-16T05:49:57.156Z,1013.15
2023-03-16T05:50:57.118Z,1013.11
2023-03-16T05:51:57.111Z,1013.10
2023-03-16T05:52:57.080Z,1013.13
2023-03-16T05:53:57.075Z,1013.19
2023-03-16T05:54:57.050Z,1013.12
2023-03-16T05:55:57.095Z,1013.16
2023-03-16T05:56:57.859Z,1013.06
2023-03-16T05:57:58.522Z,1013.13
2023-03-16T05:58:57.025Z,1013.08
2023-03-16T05:59:58.520Z,1013.14
2023-03-16T06:00:58.463Z,1013.07
2023-03-16T06:01:56.995Z,1013.10
2023-03-16T06:02:57.065Z,1013.12
2023-03-16T06:03:58.484Z,1013.09
2023-03-16T06:04:57.205Z,1013.09
2023-03-16T06:05:56.939Z,1013.09
2023-03-16T06:06:57.899Z,1013.09
2023-03-16T06:07:56.953Z,1013.06
2023-03-16T06:08:57.857Z,1013.08
2023-03-16T06:09:56.945Z,1013.12
2023-03-16T06:10:56.885Z,1013.08
2023-03-16T06:11:56.880Z,1013.10
2023-03-16T06:12:58.460Z,1013.16
2023-03-16T06:13:56.923Z,1013.17
2023-03-16T06:14:57.183Z,1013.14
2023-03-16T06:15:56.898Z,1013.18
2023-03-16T06:16:56.816Z,1013.16
2023-03-16T06:17:57.096Z,1013.16
2023-03-16T06:18:59.228Z,1013.15
2023-03-16T06:19:57.009Z,1013.09
2023-03-16T06:20:56.764Z,1013.16
2023-03-16T06:21:56.839Z,1013.13
2023-03-16T06:22:56.749Z,1013.14
2023-03-16T06:23:56.725Z,1013.20
2023-03-16T06:24:56.730Z,1013.17
2023-03-16T06:25:56.756Z,1013.18
2023-03-16T06:26:56.733Z,1013.22
2023-03-16T06:27:56.727Z,1013.18
2023-03-16T06:28:56.708Z,1013.18
2023-03-16T06:29:56.669Z,1013.24
2023-03-16T06:30:56.677Z,1013.23
2023-03-16T06:31:56.703Z,1013.18
2023-03-16T06:32:56.722Z,1013.18
2023-03-16T06:33:56.670Z,1013.18
2023-03-16T06:34:56.669Z,1013.21
2023-03-16T06:35:57.629Z,1013.17
2023-03-16T06:36:59.071Z,1013.16
2023-03-16T06:37:56.615Z,1013.23
2023-03-16T06:38:57.531Z,1013.28
2023-03-16T06:39:57.605Z,1013.23
2023-03-16T06:40:56.578Z,1013.17
2023-03-16T06:41:56.539Z,1013.16
2023-03-16T06:42:56.558Z,1013.14
2023-03-16T06:43:56.512Z,1013.20
2023-03-16T06:44:58.513Z,1013.26
2023-03-16T06:45:56.726Z,1013.22
2023-03-16T06:46:56.525Z,1013.21
2023-03-16T06:47:56.477Z,1013.19
2023-03-16T06:48:56.494Z,1013.25
2023-03-16T06:49:57.296Z,1013.16
2023-03-16T06:50:56.439Z,1013.16
2023-03-16T06:51:56.447Z,1013.25
2023-03-16T06:52:56.433Z,1013.23
2023-03-16T06:53:56.397Z,1013.25
2023-03-16T06:54:56.443Z,1013.29
2023-03-16T06:55:56.381Z,1013.25
2023-03-16T06:56:56.416Z,1013.23
2023-03-16T06:57:56.370Z,1013.28
2023-03-16T06:58:57.826Z,1013.20
2023-03-16T06:59:56.346Z,1013.23
2023-03-16T07:00:56.383Z,1013.16
2023-03-16T07:01:56.382Z,1013.17
2023-03-16T07:02:59.462Z,1013.23
2023-03-16T07:03:57.828Z,1013.19
2023-03-16T07:04:56.294Z,1013.25
2023-03-16T07:05:56.347Z,1013.28
2023-03-16T07:06:56.297Z,1013.23
2023-03-16T07:07:56.293Z,1013.27
2023-03-16T07:08:56.274Z,1013.17
2023-03-16T07:09:56.242Z,1013.28
2023-03-16T07:10:56.263Z,1013.30
2023-03-16T07:11:57.789Z,1013.27
2023-03-16T07:12:57.059Z,1013.31
2023-03-16T07:13:56.234Z,1013.36
2023-03-16T07:14:56.177Z,1013.31
2023-03-16T07:15:56.183Z,1013.36
2023-03-16T07:16:56.240Z,1013.34
2023-03-16T07:17:56.162Z,1013.37
2023-03-16T07:18:56.192Z,1013.40
2023-03-16T07:19:56.157Z,1013.34
2023-03-16T07:20:56.141Z,1013.33
2023-03-16T07:21:56.124Z,1013.38
2023-03-16T07:22:56.094Z,1013.40
2023-03-16T07:23:56.096Z,1013.32
2023-03-16T07:24:56.095Z,1013.30
2023-03-16T07:25:56.100Z,1013.31
2023-03-16T07:26:56.038Z,1013.29
2023-03-16T07:27:56.037Z,1013.36
2023-03-16T07:28:58.123Z,1013.34
2023-03-16T07:29:56.035Z,1013.41
2023-03-16T07:31:03.486Z,1013.31
2023-03-16T07:31:57.258Z,1013.37
2023-03-16T07:32:56.096Z,1013.45
2023-03-16T07:33:55.968Z,1013.38
2023-03-16T07:34:58.771Z,1013.41
2023-03-16T07:35:56.026Z,1013.42
2023-03-16T07:36:55.957Z,1013.46
2023-03-16T07:37:56.945Z,1013.48
2023-03-16T07:38:55.920Z,1013.38
2023-03-16T07:39:55.901Z,1013.40
2023-03-16T07:40:55.877Z,1013.31
2023-03-16T07:41:55.891Z,1013.46
2023-03-16T07:42:55.918Z,1013.51
2023-03-16T07:43:55.890Z,1013.45
2023-03-16T07:44:55.870Z,1013.45
2023-03-16T07:45:55.903Z,1013.48
2023-03-16T07:46:55.872Z,1013.41
2023-03-16T07:47:55.817Z,1013.47
2023-03-16T07:48:55.832Z,1013.45
2023-03-16T07:49:55.802Z,1013.44
2023-03-16T07:50:55.795Z,1013.39
2023-03-16T07:51:55.777Z,1013.33
2023-03-16T07:52:55.760Z,1013.38
2023-03-16T07:53:55.778Z,1013.36
2023-03-16T07:54:55.784Z,1013.29
2023-03-16T07:55:55.778Z,1013.32
2023-03-16T07:56:55.771Z,1013.37
2023-03-16T07:57:55.709Z,1013.33
2023-03-16T07:58:55.693Z,1013.35
2023-03-16T07:59:55.670Z,1013.40
2023-03-16T08:00:55.690Z,1013.36
2023-03-16T08:01:55.647Z,1013.32
2023-03-16T08:02:55.679Z,1013.30
2023-03-16T08:03:55.639Z,1013.29
2023-03-16T08:04:55.625Z,1013.33
2023-03-16T08:05:55.638Z,1013.32
2023-03-16T08:06:55.671Z,1013.33
2023-03-16T08:07:55.626Z,1013.34
2023-03-16T08:08:55.610Z,1013.38
2023-03-16T08:09:55.576Z,1013.28
2023-03-16T08:10:56.675Z,1013.29
2023-03-16T08:11:55.580Z,1013.28
2023-03-16T08:12:55.698Z,1013.22
2023-03-16T08:13:55.577Z,1013.31
2023-03-16T08:14:55.536Z,1013.28
2023-03-16T08:15:55.545Z,1013.29
2023-03-16T08:16:55.505Z,1013.30
2023-03-16T08:17:55.517Z,1013.31
2023-03-16T08:18:56.541Z,1013.32
2023-03-16T08:19:55.500Z,1013.27
2023-03-16T08:20:56.431Z,1013.19
2023-03-16T08:22:01.391Z,1013.23
2023-03-16T08:22:56.421Z,1013.25
2023-03-16T08:23:55.409Z,1013.17
2023-03-16T08:24:55.410Z,1013.20
2023-03-16T08:25:55.413Z,1013.23
2023-03-16T08:26:55.372Z,1013.24
2023-03-16T08:27:55.379Z,1013.22
2023-03-16T08:28:55.452Z,1013.22
2023-03-16T08:29:55.347Z,1013.19
2023-03-16T08:30:55.436Z,1013.18
2023-03-16T08:31:55.310Z,1013.20
2023-03-16T08:32:55.340Z,1013.22
2023-03-16T08:33:55.321Z,1013.19
2023-03-16T08:34:55.286Z,1013.19
2023-03-16T08:35:55.417Z,1013.14
2023-03-16T08:36:57.309Z,1013.10
2023-03-16T08:37:55.288Z,1013.09
2023-03-16T08:39:06.542Z,1013.09
2023-03-16T08:39:56.252Z,1013.12
2023-03-16T08:40:55.229Z,1013.12
2023-03-16T08:41:55.235Z,1013.17
2023-03-16T08:42:55.284Z,1013.17
2023-03-16T08:43:55.206Z,1013.26
2023-03-16T08:44:55.256Z,1013.24
2023-03-16T08:45:55.187Z,1013.28
2023-03-16T08:46:55.226Z,1013.33
2023-03-16T08:47:55.156Z,1013.27
2023-03-16T08:48:55.163Z,1013.31
2023-03-16T08:49:55.198Z,1013.29
2023-03-16T08:50:55.185Z,1013.36
2023-03-16T08:51:55.163Z,1013.35
2023-03-16T08:52:55.088Z,1013.39
2023-03-16T08:53:55.112Z,1013.31
2023-03-16T08:55:03.080Z,1013.37
2023-03-16T08:55:56.055Z,1013.35
2023-03-16T08:56:55.049Z,1013.38
2023-03-16T08:57:55.099Z,1013.33
2023-03-16T08:58:55.045Z,1013.39
2023-03-16T08:59:55.027Z,1013.32
2023-03-16T09:00:56.496Z,1013.31
2023-03-16T09:01:56.572Z,1013.24
2023-03-16T09:02:55.013Z,1013.30
2023-03-16T09:03:55.071Z,1013.24
2023-03-16T09:04:55.034Z,1013.24
2023-03-16T09:05:55.940Z,1013.29
2023-03-16T09:07:07.887Z,1013.31
2023-03-16T09:07:55.946Z,1013.34
2023-03-16T09:08:54.904Z,1013.26
2023-03-16T09:09:54.902Z,1013.28
2023-03-16T09:10:55.146Z,1013.34
2023-03-16T09:11:54.893Z,1013.27
2023-03-16T09:12:54.901Z,1013.28
2023-03-16T09:13:54.933Z,1013.31
2023-03-16T09:14:54.852Z,1013.26
2023-03-16T09:15:55.402Z,1013.32
2023-03-16T09:16:54.844Z,1013.31
2023-03-16T09:17:54.826Z,1013.31
2023-03-16T09:18:54.817Z,1013.28
2023-03-16T09:20:01.338Z,1013.28
2023-03-16T09:20:55.783Z,1013.29
2023-03-16T09:21:54.789Z,1013.25
2023-03-16T09:22:55.626Z,1013.24
2023-03-16T09:23:56.224Z,1013.26
2023-03-16T09:24:54.758Z,1013.19
2023-03-16T09:25:54.735Z,1013.20
2023-03-16T09:26:56.357Z,1013.17
2023-03-16T09:27:54.728Z,1013.09
2023-03-16T09:28:56.699Z,1013.17
2023-03-16T09:29:54.696Z,1013.09
2023-03-16T09:30:54.693Z,1013.04
2023-03-16T09:31:55.570Z,1013.08
2023-03-16T09:32:54.736Z,1013.10
2023-03-16T09:33:54.664Z,1013.03
2023-03-16T09:34:54.633Z,1013.03
2023-03-16T09:35:54.664Z,1012.97
2023-03-16T09:36:54.598Z,1012.96
2023-03-16T09:38:05.550Z,1012.95
2023-03-16T09:38:55.586Z,1012.98
2023-03-16T09:39:58.024Z,1012.97
2023-03-16T09:40:55.617Z,1012.91
2023-03-16T09:41:55.510Z,1012.95
2023-03-16T09:42:54.547Z,1012.95
2023-03-16T09:43:54.583Z,1012.93
2023-03-16T09:44:54.617Z,1012.91
2023-03-16T09:45:54.538Z,1012.92
2023-03-16T09:46:54.514Z,1012.85
2023-03-16T09:47:54.507Z,1012.86
2023-03-16T09:48:54.486Z,1012.94
2023-03-16T09:49:54.508Z,1012.89
2023-03-16T09:50:54.959Z,1012.88
2023-03-16T09:51:54.437Z,1012.86
2023-03-16T09:52:54.429Z,1012.83
2023-03-16T09:53:54.472Z,1012.80
2023-03-16T09:54:54.407Z,1012.78
2023-03-16T09:55:54.437Z,1012.78
2023-03-16T09:56:54.612Z,1012.76
2023-03-16T09:57:54.407Z,1012.73
2023-03-16T09:58:54.406Z,1012.73
2023-03-16T09:59:54.373Z,1012.71
2023-03-16T10:00:54.466Z,1012.68
2023-03-16T10:01:54.495Z,1012.59
2023-03-16T10:02:54.365Z,1012.56
2023-03-16T10:03:54.352Z,1012.68
2023-03-16T10:04:54.300Z,1012.62
2023-03-16T10:05:54.290Z,1012.62
2023-03-16T10:06:54.266Z,1012.61
2023-03-16T10:07:54.283Z,1012.56
2023-03-16T10:08:55.224Z,1012.59
2023-03-16T10:09:54.239Z,1012.56
2023-03-16T10:10:54.256Z,1012.49
2023-03-16T10:11:54.214Z,1012.47
2023-03-16T10:12:55.769Z,1012.41
2023-03-16T10:13:55.170Z,1012.55
2023-03-16T10:14:54.432Z,1012.50
2023-03-16T10:15:54.189Z,1012.45
2023-03-16T10:16:54.282Z,1012.44
2023-03-16T10:17:54.295Z,1012.44
2023-03-16T10:18:54.144Z,1012.48
2023-03-16T10:19:54.142Z,1012.45
2023-03-16T10:20:54.134Z,1012.50
2023-03-16T10:21:54.974Z,1012.45
2023-03-16T10:22:54.080Z,1012.46
2023-03-16T10:23:54.198Z,1012.48
2023-03-16T10:24:54.079Z,1012.54
2023-03-16T10:25:54.074Z,1012.51
2023-03-16T10:26:54.310Z,1012.53
2023-03-16T10:27:54.095Z,1012.55
2023-03-16T10:28:54.007Z,1012.47
2023-03-16T10:29:54.021Z,1012.50
2023-03-16T10:30:53.997Z,1012.53
2023-03-16T10:31:54.032Z,1012.59
2023-03-16T10:32:54.052Z,1012.62
2023-03-16T10:33:54.002Z,1012.62
2023-03-16T10:34:53.952Z,1012.56
2023-03-16T10:35:53.938Z,1012.62
2023-03-16T10:36:53.947Z,1012.54
2023-03-16T10:37:53.923Z,1012.49
2023-03-16T10:38:53.951Z,1012.46
2023-03-16T10:39:53.894Z,1012.41
2023-03-16T10:40:53.884Z,1012.44
2023-03-16T10:41:53.877Z,1012.45
2023-03-16T10:42:53.871Z,1012.40
2023-03-16T10:43:53.877Z,1012.39
2023-03-16T10:44:53.857Z,1012.29
2023-03-16T10:45:53.853Z,1012.29
2023-03-16T10:46:55.388Z,1012.26
2023-03-16T10:47:53.828Z,1012.20
2023-03-16T10:48:54.925Z,1012.13
2023-03-16T10:49:53.822Z,1012.14
2023-03-16T10:50:53.826Z,1012.13
2023-03-16T10:51:53.815Z,1012.11
2023-03-16T10:52:53.750Z,1012.12
2023-03-16T10:53:53.751Z,1012.20
2023-03-16T10:54:53.753Z,1012.19
2023-03-16T10:55:53.720Z,1012.20
2023-03-16T10:56:53.769Z,1012.20
2023-03-16T10:57:53.745Z,1012.06
2023-03-16T10:58:53.682Z,1012.04
2023-03-16T10:59:53.683Z,1012.20
2023-03-16T11:00:53.785Z,1012.09
2023-03-16T11:01:53.672Z,1012.06
2023-03-16T11:02:53.707Z,1012.07
2023-03-16T11:03:53.659Z,1011.99
2023-03-16T11:04:53.859Z,1011.94
2023-03-16T11:05:53.652Z,1011.95
2023-03-16T11:06:53.646Z,1012.01
2023-03-16T11:07:53.649Z,1011.97
2023-03-16T11:08:54.760Z,1011.93
2023-03-16T11:09:53.629Z,1012.04
2023-03-16T11:10:56.173Z,1012.01
2023-03-16T11:12:03.156Z,1011.96
2023-03-16T11:12:53.524Z,1011.95
2023-03-16T11:13:53.530Z,1011.94
2023-03-16T11:14:53.554Z,1011.93
2023-03-16T11:15:53.534Z,1011.87
2023-03-16T11:16:53.596Z,1011.91
2023-03-16T11:17:53.534Z,1011.91
2023-03-16T11:18:53.519Z,1011.87
2023-03-16T11:19:54.780Z,1011.92
2023-03-16T11:20:53.458Z,1011.98
2023-03-16T11:21:54.377Z,1011.83
2023-03-16T11:22:53.476Z,1011.79
2023-03-16T11:23:53.599Z,1011.79
2023-03-16T11:24:53.429Z,1011.77
2023-03-16T11:25:53.556Z,1011.78
2023-03-16T11:26:53.386Z,1011.77
2023-03-16T11:27:54.229Z,1011.73
2023-03-16T11:28:53.398Z,1011.76
2023-03-16T11:29:53.361Z,1011.76
2023-03-16T11:30:53.369Z,1011.76
2023-03-16T11:31:53.482Z,1011.70
2023-03-16T11:32:53.473Z,1011.68
2023-03-16T11:33:53.326Z,1011.63
2023-03-16T11:34:53.297Z,1011.74
2023-03-16T11:35:59.196Z,1011.59
2023-03-16T11:36:54.387Z,1011.49
2023-03-16T11:37:53.283Z,1011.61
2023-03-16T11:38:54.528Z,1011.57
2023-03-16T11:39:53.274Z,1011.60
2023-03-16T11:40:53.300Z,1011.52
2023-03-16T11:41:53.223Z,1011.43
2023-03-16T11:42:53.236Z,1011.49
2023-03-16T11:43:53.225Z,1011.57
2023-03-16T11:44:53.214Z,1011.47
2023-03-16T11:45:53.232Z,1011.45
2023-03-16T11:46:53.217Z,1011.48
2023-03-16T11:47:54.637Z,1011.40
2023-03-16T11:48:53.165Z,1011.42
2023-03-16T11:49:53.154Z,1011.39
2023-03-16T11:50:53.117Z,1011.25
2023-03-16T11:51:53.123Z,1011.24
2023-03-16T11:52:53.108Z,1011.25
2023-03-16T11:53:53.109Z,1011.42
2023-03-16T11:54:53.090Z,1011.34
2023-03-16T11:55:53.063Z,1011.23
2023-03-16T11:56:53.039Z,1011.29
2023-03-16T11:57:53.042Z,1011.30
2023-03-16T11:58:53.040Z,1011.29
2023-03-16T12:00:01.066Z,1011.23
2023-03-16T12:00:54.824Z,1011.25
2023-03-16T12:02:00.139Z,1011.21
2023-03-16T12:02:54.094Z,1011.19
2023-03-16T12:03:54.474Z,1011.06
2023-03-16T12:04:52.962Z,1011.08